METAR Data
IDs: Format: Raw Decoded Include TAF

Data at: 0310 UTC 23 Sep 2018

METAR for:KMRT (Marysville/Union Cnt, OH, US)
Text:KMRT 230255Z AUTO 00000KT 10SM CLR 13/11 A3022 RMK AO2 T01260111
Temperature: 12.6°C ( 55°F)
Dewpoint: 11.1°C ( 52°F) [RH = 91%]
Pressure (altimeter):30.22 inches Hg (1023.5 mb)
Winds:calm
Visibility:10 or more sm (16+ km)
Ceiling:at least 12,000 feet AGL
Clouds:sky clear below 12,000 feet AGL
QC Flag:automated observation with no human augmentation